Time;durP1;ratioP1;P1;durP2;ratioP2;P2;SDS_P1;SDS_P2;PMS_P1;PMS_P2;Temp;Humidity;BMP_temperature;BMP_pressure;BME280_temperature;BME280_humidity;BME280_pressure;Samples;Min_cycle;Max_cycle;Signal;HPM_P1;HPM_P2
2022/12/03 00:00:53;;;;;;;27.02;20.02;;;9.60;84.30;;;;;;4993873;28;20022;-66
2022/12/03 00:03:19;;;;;;;26.15;19.15;;;9.60;84.40;;;;;;4993494;28;20068;-67
2022/12/03 00:05:45;;;;;;;26.27;18.58;;;9.70;84.20;;;;;;4993764;28;20468;-65
2022/12/03 00:08:10;;;;;;;24.80;19.10;;;9.60;83.90;;;;;;4993746;28;20034;-66
2022/12/03 00:10:36;;;;;;;25.45;18.67;;;9.80;85.00;;;;;;4993557;28;20150;-66
2022/12/03 00:13:01;;;;;;;25.50;18.52;;;9.80;84.40;;;;;;4993695;28;20457;-65
2022/12/03 00:15:27;;;;;;;24.88;19.25;;;9.60;83.80;;;;;;4993256;28;20474;-68
2022/12/03 00:17:52;;;;;;;27.48;18.35;;;9.50;84.40;;;;;;4993369;28;20018;-67
2022/12/03 00:20:21;;;;;;;24.02;17.90;;;9.50;85.00;;;;;;4993395;28;20387;-70
2022/12/03 00:22:47;;;;;;;25.20;18.80;;;9.60;85.10;;;;;;4993586;28;20030;-63
2022/12/03 00:25:12;;;;;;;24.45;18.05;;;9.50;84.60;;;;;;4993304;28;20027;-72
2022/12/03 00:27:38;;;;;;;22.83;17.95;;;9.60;84.60;;;;;;4993414;28;20027;-68
2022/12/03 00:30:05;;;;;;;26.30;18.50;;;9.60;84.80;;;;;;4993212;28;20096;-65
2022/12/03 00:32:30;;;;;;;25.20;18.55;;;9.40;85.20;;;;;;4993190;28;20026;-70
2022/12/03 00:34:56;;;;;;;26.33;17.92;;;9.60;85.50;;;;;;4993110;28;20089;-68
2022/12/03 00:37:21;;;;;;;23.30;17.67;;;9.50;85.50;;;;;;4993317;28;20046;-64
2022/12/03 00:39:47;;;;;;;25.15;19.38;;;9.50;84.80;;;;;;4993165;28;20113;-65
2022/12/03 00:42:13;;;;;;;24.98;18.63;;;9.60;84.50;;;;;;4993558;28;20025;-71
2022/12/03 00:44:38;;;;;;;24.60;18.52;;;9.60;84.20;;;;;;4993001;28;20116;-65
2022/12/03 00:47:04;;;;;;;25.88;19.05;;;9.50;84.50;;;;;;4993127;28;20034;-66
2022/12/03 00:49:29;;;;;;;24.20;18.13;;;9.60;84.40;;;;;;4993414;28;20037;-68
2022/12/03 00:51:55;;;;;;;25.15;18.05;;;9.50;84.30;;;;;;4993301;28;20027;-64
2022/12/03 00:54:21;;;;;;;24.75;17.77;;;9.50;84.70;;;;;;4993152;28;20386;-70
2022/12/03 00:56:47;;;;;;;25.08;18.48;;;9.20;85.10;;;;;;4993106;28;20026;-67
2022/12/03 00:59:12;;;;;;;23.83;17.27;;;9.20;85.20;;;;;;4993048;28;20077;-64
2022/12/03 01:01:38;;;;;;;22.90;17.95;;;9.30;85.60;;;;;;4992958;28;20022;-69
2022/12/03 01:04:04;;;;;;;22.80;18.05;;;9.20;85.10;;;;;;4992932;28;20480;-66
2022/12/03 01:06:29;;;;;;;26.48;19.17;;;9.20;85.80;;;;;;4993095;28;20387;-67
2022/12/03 01:08:55;;;;;;;24.73;18.92;;;9.00;86.30;;;;;;4993044;28;20027;-67
2022/12/03 01:11:40;;;;;;;21.70;17.40;;;9.20;86.40;;;;;;4993104;28;20034;-72
2022/12/03 01:14:11;;;;;;;25.90;18.88;;;8.90;86.40;;;;;;4995412;28;20511;-68
2022/12/03 01:16:38;;;;;;;24.15;18.10;;;9.20;85.80;;;;;;4996121;28;20034;-69
2022/12/03 01:19:05;;;;;;;22.98;18.73;;;9.30;85.60;;;;;;4996519;28;20514;-64
2022/12/03 01:21:31;;;;;;;24.15;18.23;;;9.30;86.20;;;;;;4987199;28;20110;-67
2022/12/03 01:23:57;;;;;;;25.58;19.67;;;9.00;85.90;;;;;;4977084;28;20110;-70
2022/12/03 01:26:24;;;;;;;23.40;18.67;;;8.90;86.50;;;;;;4976487;28;20476;-74
2022/12/03 01:28:50;;;;;;;24.80;18.75;;;8.70;86.50;;;;;;4975931;28;20506;-72
2022/12/03 01:33:59;;;;;;;23.88;18.05;;;8.90;86.40;;;;;;4976835;28;20045;-74
2022/12/03 01:36:25;;;;;;;25.25;18.75;;;9.00;86.70;;;;;;4976046;28;20038;-66
2022/12/03 01:38:51;;;;;;;25.25;18.48;;;8.80;86.40;;;;;;4977014;28;20396;-66
2022/12/03 01:41:18;;;;;;;26.00;18.15;;;9.10;86.00;;;;;;4976790;28;20376;-64
2022/12/03 01:43:44;;;;;;;22.10;17.50;;;8.70;86.70;;;;;;4976232;28;20103;-74
2022/12/03 01:46:15;;;;;;;26.45;18.83;;;9.00;87.10;;;;;;4976516;28;20034;-65
2022/12/03 01:48:40;;;;;;;27.33;18.52;;;9.20;85.80;;;;;;4976706;28;20102;-69
2022/12/03 01:51:06;;;;;;;24.25;18.73;;;9.30;85.20;;;;;;4976521;28;20189;-66
2022/12/03 01:53:32;;;;;;;25.42;18.77;;;9.20;86.40;;;;;;4976373;28;20030;-67
2022/12/03 01:55:58;;;;;;;25.88;19.67;;;9.20;86.00;;;;;;4976526;28;20031;-70
2022/12/03 01:58:27;;;;;;;25.05;19.38;;;8.50;86.90;;;;;;4976685;28;20027;-63
2022/12/03 02:00:52;;;;;;;24.75;18.65;;;8.70;87.00;;;;;;4976461;28;20058;-67
2022/12/03 02:03:23;;;;;;;23.73;18.55;;;8.80;86.90;;;;;;4976822;28;20083;-72
2022/12/03 02:05:49;;;;;;;24.02;18.70;;;9.00;86.50;;;;;;4976736;28;20034;-67
2022/12/03 02:08:28;;;;;;;23.45;18.73;;;8.90;86.60;;;;;;4976728;28;20033;-70
2022/12/03 02:10:55;;;;;;;23.67;17.48;;;9.00;86.00;;;;;;4976503;28;20062;-71
2022/12/03 02:13:21;;;;;;;25.95;18.83;;;9.10;86.30;;;;;;4976396;28;20029;-63
2022/12/03 02:15:46;;;;;;;25.10;18.40;;;9.00;86.40;;;;;;4976487;28;20109;-65
2022/12/03 02:18:12;;;;;;;24.20;17.48;;;9.20;85.80;;;;;;4976518;28;20019;-67
2022/12/03 02:21:08;;;;;;;27.80;19.75;;;8.90;85.80;;;;;;4976547;28;20090;-68
2022/12/03 02:23:41;;;;;;;24.55;19.10;;;9.10;86.30;;;;;;4976646;28;20030;-72
2022/12/03 02:26:07;;;;;;;26.40;19.20;;;9.30;86.20;;;;;;4976126;28;20026;-65
2022/12/03 02:28:33;;;;;;;24.92;19.13;;;9.30;85.20;;;;;;4976556;28;20435;-62
2022/12/03 02:30:58;;;;;;;24.60;18.27;;;9.20;85.90;;;;;;4976827;28;20035;-66
2022/12/03 02:33:24;;;;;;;24.98;19.25;;;9.20;85.70;;;;;;4976398;28;20054;-64
2022/12/03 02:35:50;;;;;;;23.52;18.95;;;9.30;85.50;;;;;;4975895;28;20035;-61
2022/12/03 02:38:23;;;;;;;26.17;19.17;;;9.20;85.40;;;;;;4975662;28;20364;-62
2022/12/03 02:40:52;;;;;;;25.52;19.52;;;8.90;86.10;;;;;;4975736;28;20026;-65
2022/12/03 02:43:20;;;;;;;25.45;18.83;;;8.90;86.00;;;;;;4974995;28;20042;-62
2022/12/03 02:45:58;;;;;;;27.52;20.58;;;8.60;87.30;;;;;;4975334;28;20034;-63
2022/12/03 02:48:28;;;;;;;27.48;20.55;;;8.70;87.30;;;;;;4974429;28;20495;-66
2022/12/03 02:50:58;;;;;;;24.25;18.05;;;8.90;87.20;;;;;;4975809;28;20070;-64
2022/12/03 02:53:29;;;;;;;27.98;19.88;;;9.10;86.30;;;;;;4975454;28;20439;-61
2022/12/03 02:55:58;;;;;;;25.95;18.45;;;8.90;86.30;;;;;;4975597;28;20035;-60
2022/12/03 02:58:26;;;;;;;25.58;19.88;;;9.10;86.60;;;;;;4975114;28;20023;-61
2022/12/03 03:00:53;;;;;;;26.73;18.65;;;9.10;85.80;;;;;;4975092;28;20027;-60
2022/12/03 03:03:20;;;;;;;26.52;19.80;;;9.00;86.50;;;;;;4975158;28;20102;-61
2022/12/03 03:05:47;;;;;;;26.83;19.50;;;8.90;86.30;;;;;;4975242;28;20554;-61
2022/12/03 03:08:13;;;;;;;24.02;18.17;;;9.00;86.60;;;;;;4975225;28;20023;-67
2022/12/03 03:10:40;;;;;;;26.50;18.35;;;9.00;87.10;;;;;;4975075;28;20034;-64
2022/12/03 03:13:09;;;;;;;25.80;19.20;;;9.20;86.30;;;;;;4973357;28;20026;-61
2022/12/03 03:15:37;;;;;;;24.35;18.60;;;8.90;86.90;;;;;;4975065;28;20101;-70
2022/12/03 03:18:03;;;;;;;25.25;18.52;;;9.10;86.30;;;;;;4974872;28;20101;-63
2022/12/03 03:20:29;;;;;;;26.52;18.95;;;9.10;86.70;;;;;;4974975;28;20027;-63
2022/12/03 03:23:14;;;;;;;25.45;19.33;;;9.20;86.50;;;;;;4974689;28;20110;-62
2022/12/03 03:25:44;;;;;;;24.50;18.80;;;9.20;85.80;;;;;;4974731;28;20018;-63
2022/12/03 03:28:11;;;;;;;27.60;20.27;;;9.10;86.70;;;;;;4974762;28;20027;-61
2022/12/03 03:30:39;;;;;;;24.73;18.17;;;9.30;86.10;;;;;;4974735;28;20380;-66
2022/12/03 03:33:05;;;;;;;24.55;18.42;;;9.40;85.50;;;;;;4974796;28;20026;-64
2022/12/03 03:35:31;;;;;;;25.75;18.70;;;9.20;86.30;;;;;;4974291;28;20110;-61
2022/12/03 03:37:57;;;;;;;25.92;19.08;;;9.10;86.30;;;;;;4989616;28;20109;-60
2022/12/03 03:40:24;;;;;;;27.40;19.17;;;9.20;86.30;;;;;;4974906;28;20022;-60
2022/12/03 03:42:50;;;;;;;26.38;19.02;;;9.20;86.00;;;;;;4974611;28;20438;-67
2022/12/03 03:45:16;;;;;;;25.85;20.38;;;8.90;86.20;;;;;;4974567;28;20495;-63
2022/12/03 03:47:42;;;;;;;27.33;19.13;;;9.00;86.60;;;;;;4974535;28;20034;-61
2022/12/03 03:50:10;;;;;;;25.52;19.50;;;9.00;87.10;;;;;;4974342;28;20031;-62
2022/12/03 03:52:38;;;;;;;28.08;21.83;;;8.80;87.50;;;;;;4974599;28;20067;-66
2022/12/03 03:55:05;;;;;;;28.05;21.15;;;8.90;87.30;;;;;;4973998;28;20023;-61
2022/12/03 03:57:31;;;;;;;28.48;21.45;;;8.90;86.90;;;;;;4974376;28;20019;-60
2022/12/03 03:59:58;;;;;;;31.35;22.30;;;9.10;86.80;;;;;;4974238;28;20142;-60
2022/12/03 04:02:25;;;;;;;28.73;21.70;;;9.20;86.40;;;;;;4974448;28;20026;-67
2022/12/03 04:04:51;;;;;;;26.90;20.48;;;9.10;86.60;;;;;;4974076;28;20059;-60
2022/12/03 04:07:17;;;;;;;30.00;21.92;;;9.20;86.40;;;;;;4974453;28;20066;-61
2022/12/03 04:09:43;;;;;;;27.85;21.05;;;9.10;86.10;;;;;;4973893;28;20042;-61
2022/12/03 04:14:55;;;;;;;27.75;20.77;;;8.70;88.00;;;;;;4974431;28;20077;-61
2022/12/03 04:17:20;;;;;;;30.13;21.73;;;8.90;87.80;;;;;;4974096;28;20046;-66
2022/12/03 04:19:46;;;;;;;29.48;21.52;;;9.00;86.90;;;;;;4974134;28;20026;-62
2022/12/03 04:28:47;;;;;;;29.20;22.30;;;9.00;86.80;;;;;;4974281;28;20459;-65
2022/12/03 04:30:25;;;;;;;30.98;22.75;;;9.30;86.40;;;;;;4973790;28;20113;-70
2022/12/03 04:35:43;;;;;;;28.17;21.20;;;9.30;85.90;;;;;;4973992;28;20526;-72
2022/12/03 04:38:14;;;;;;;31.20;22.38;;;9.00;86.80;;;;;;4973953;28;20077;-70
2022/12/03 04:43:24;;;;;;;31.35;24.25;;;9.00;87.50;;;;;;4974161;28;20063;-63
2022/12/03 04:45:49;;;;;;;31.30;21.75;;;9.20;87.10;;;;;;4973785;28;20039;-65
2022/12/03 04:48:15;;;;;;;27.02;21.48;;;9.20;87.10;;;;;;4975298;28;20487;-71
2022/12/03 04:50:41;;;;;;;30.50;21.35;;;9.30;86.70;;;;;;4977680;28;20101;-65
2022/12/03 04:53:06;;;;;;;28.90;21.33;;;9.30;87.00;;;;;;4977389;28;20023;-71
2022/12/03 04:55:32;;;;;;;31.00;21.25;;;9.20;87.20;;;;;;4977684;28;20137;-72
2022/12/03 04:57:58;;;;;;;30.40;22.35;;;9.30;87.50;;;;;;4977832;28;20033;-72
2022/12/03 05:00:23;;;;;;;30.73;21.65;;;9.30;86.90;;;;;;4977794;28;20029;-71
2022/12/03 05:02:49;;;;;;;30.88;22.88;;;9.40;86.70;;;;;;4977548;28;20499;-70
2022/12/03 05:05:15;;;;;;;31.00;22.73;;;9.30;87.20;;;;;;4977265;28;20105;-61
2022/12/03 05:07:41;;;;;;;31.02;23.35;;;9.40;87.30;;;;;;4978154;28;20027;-62
2022/12/03 05:10:07;;;;;;;34.20;24.00;;;9.40;87.20;;;;;;4977686;28;20047;-60
2022/12/03 05:12:33;;;;;;;35.35;23.95;;;9.30;87.10;;;;;;4977669;28;20111;-64
2022/12/03 05:14:58;;;;;;;35.72;24.92;;;9.30;87.30;;;;;;4977249;28;20066;-61
2022/12/03 05:17:24;;;;;;;33.38;23.58;;;9.30;87.50;;;;;;4977067;28;20110;-69
2022/12/03 05:22:34;;;;;;;35.50;25.42;;;9.40;87.30;;;;;;4977154;28;20093;-63
2022/12/03 05:24:59;;;;;;;37.95;25.95;;;9.30;87.20;;;;;;4976957;28;20026;-65
2022/12/03 05:27:25;;;;;;;40.90;26.25;;;9.30;87.40;;;;;;4977221;28;20464;-64
2022/12/03 05:29:51;;;;;;;38.97;25.83;;;9.30;87.70;;;;;;4976896;28;20109;-69
2022/12/03 05:32:16;;;;;;;39.17;26.88;;;9.30;87.60;;;;;;4976805;28;20041;-67
2022/12/03 05:34:42;;;;;;;38.53;26.63;;;9.20;87.80;;;;;;4976924;28;20023;-64
2022/12/03 05:37:07;;;;;;;36.03;25.30;;;9.20;87.70;;;;;;4976508;28;20033;-69
2022/12/03 05:39:33;;;;;;;36.25;25.00;;;9.20;87.60;;;;;;4976800;28;20109;-68
2022/12/03 05:44:43;;;;;;;39.42;25.77;;;9.20;87.70;;;;;;4975934;28;20109;-63
2022/12/03 05:47:08;;;;;;;40.45;26.50;;;9.10;87.80;;;;;;4976729;28;20472;-64
2022/12/03 05:49:34;;;;;;;37.97;26.70;;;9.20;88.00;;;;;;4976428;28;20617;-65
2022/12/03 05:52:00;;;;;;;37.10;24.38;;;9.20;87.90;;;;;;4976255;28;20038;-67
2022/12/03 05:54:25;;;;;;;38.47;26.42;;;8.90;88.50;;;;;;4976767;28;20019;-67
2022/12/03 05:56:51;;;;;;;38.40;25.83;;;9.00;88.80;;;;;;4976492;28;20029;-64
2022/12/03 05:59:16;;;;;;;39.60;26.85;;;9.10;89.00;;;;;;4976255;28;20023;-64
2022/12/03 06:01:42;;;;;;;37.25;25.98;;;9.20;88.10;;;;;;4985881;28;20481;-72
2022/12/03 06:04:07;;;;;;;36.75;25.63;;;9.20;87.90;;;;;;4991252;28;20035;-69
2022/12/03 06:06:33;;;;;;;38.17;25.92;;;9.20;88.00;;;;;;4994644;28;20105;-68
2022/12/03 06:08:59;;;;;;;37.92;26.30;;;9.20;87.70;;;;;;4994112;28;20471;-65
2022/12/03 06:11:24;;;;;;;39.60;27.02;;;9.20;87.90;;;;;;4995035;28;20046;-64
2022/12/03 06:13:50;;;;;;;40.47;26.83;;;9.20;88.00;;;;;;4995824;28;20036;-68
2022/12/03 06:16:15;;;;;;;36.90;26.02;;;9.20;88.00;;;;;;4995774;28;20038;-64
2022/12/03 06:18:41;;;;;;;42.28;26.40;;;9.10;88.10;;;;;;4995673;28;20531;-71
2022/12/03 06:21:06;;;;;;;38.58;25.98;;;9.20;88.30;;;;;;4995210;28;20077;-67
2022/12/03 06:23:32;;;;;;;40.08;26.67;;;9.20;88.30;;;;;;4995523;28;20026;-65
2022/12/03 06:25:57;;;;;;;42.08;27.40;;;9.20;88.00;;;;;;4995612;28;20029;-64
2022/12/03 06:28:23;;;;;;;39.38;26.63;;;9.10;88.30;;;;;;4995462;28;20478;-62
2022/12/03 06:30:48;;;;;;;38.47;26.45;;;9.20;88.20;;;;;;4995360;28;20088;-70
2022/12/03 06:33:14;;;;;;;40.28;25.92;;;9.20;88.10;;;;;;4995142;28;20057;-69
2022/12/03 06:35:39;;;;;;;37.17;25.73;;;9.30;88.30;;;;;;4995178;28;20037;-66
2022/12/03 06:38:05;;;;;;;38.47;26.42;;;9.20;88.40;;;;;;4995248;28;20019;-72
2022/12/03 06:40:31;;;;;;;39.28;25.45;;;9.10;88.30;;;;;;4995362;28;20019;-69
2022/12/03 06:42:56;;;;;;;38.53;27.25;;;9.20;88.70;;;;;;4994887;28;20026;-60
2022/12/03 06:45:22;;;;;;;37.28;27.27;;;9.30;88.10;;;;;;4995216;28;20045;-63
2022/12/03 06:47:47;;;;;;;38.95;25.88;;;9.30;88.10;;;;;;4995067;28;20033;-63
2022/12/03 06:50:13;;;;;;;39.70;26.30;;;9.30;88.60;;;;;;4994682;28;20117;-67
2022/12/03 06:52:39;;;;;;;35.45;25.30;;;9.20;88.10;;;;;;4995101;28;20328;-63
2022/12/03 06:55:05;;;;;;;40.25;28.05;;;9.10;88.20;;;;;;4995056;28;20076;-64
2022/12/03 06:57:30;;;;;;;37.67;26.38;;;9.10;88.40;;;;;;4995157;28;20031;-68
2022/12/03 06:59:56;;;;;;;41.80;27.90;;;9.20;88.60;;;;;;4994924;28;20494;-62
2022/12/03 07:02:22;;;;;;;39.15;27.23;;;8.30;87.30;;;;;;4994639;28;20069;-65
2022/12/03 07:04:47;;;;;;;40.92;28.23;;;7.20;90.50;;;;;;4994269;28;20054;-65
2022/12/03 07:07:13;;;;;;;42.03;27.13;;;6.60;91.90;;;;;;4994573;28;20451;-64
2022/12/03 07:09:39;;;;;;;39.35;27.20;;;6.30;92.50;;;;;;4994601;28;20038;-68
2022/12/03 07:12:04;;;;;;;38.90;26.85;;;6.10;92.80;;;;;;4993651;28;20149;-62
2022/12/03 07:14:30;;;;;;;42.90;29.30;;;6.00;93.30;;;;;;4994479;28;20042;-61
2022/12/03 07:16:55;;;;;;;40.10;27.60;;;6.00;92.90;;;;;;4994351;28;20037;-64
2022/12/03 07:19:21;;;;;;;42.58;28.85;;;5.90;93.70;;;;;;4994158;28;20460;-61
2022/12/03 07:21:47;;;;;;;45.67;28.65;;;5.80;93.60;;;;;;4994474;28;20534;-67
2022/12/03 07:24:12;;;;;;;45.30;28.48;;;5.70;94.00;;;;;;4994322;28;20023;-61
2022/12/03 07:26:38;;;;;;;44.45;28.85;;;5.70;94.10;;;;;;4994366;28;20019;-62
2022/12/03 07:29:04;;;;;;;43.67;28.38;;;5.50;94.50;;;;;;4994172;28;20062;-65
2022/12/03 07:31:29;;;;;;;44.22;28.35;;;5.50;94.70;;;;;;4994498;28;20066;-63
2022/12/03 07:33:55;;;;;;;42.60;28.95;;;5.30;95.00;;;;;;4993726;28;20479;-60
2022/12/03 07:36:20;;;;;;;44.40;29.90;;;5.50;94.80;;;;;;4994164;28;20030;-67
2022/12/03 07:38:46;;;;;;;45.15;29.35;;;5.30;95.20;;;;;;4994267;28;20029;-68
2022/12/03 07:41:12;;;;;;;43.30;28.52;;;5.10;95.50;;;;;;4993972;28;20022;-61
2022/12/03 07:43:37;;;;;;;46.72;28.10;;;5.10;95.90;;;;;;4992171;28;20034;-63
2022/12/03 07:46:03;;;;;;;41.90;27.90;;;5.10;96.00;;;;;;4993949;28;20081;-61
2022/12/03 07:48:29;;;;;;;45.30;29.55;;;5.10;95.90;;;;;;4993535;28;20486;-62
2022/12/03 07:50:54;;;;;;;44.13;29.25;;;5.00;96.10;;;;;;4993956;28;20517;-63
2022/12/03 07:53:20;;;;;;;44.15;29.33;;;5.00;96.40;;;;;;4993772;28;20018;-62
2022/12/03 07:55:46;;;;;;;43.35;27.95;;;5.00;96.30;;;;;;4994010;28;20557;-65
2022/12/03 07:58:11;;;;;;;46.08;30.02;;;5.00;96.40;;;;;;4993557;28;20028;-66
2022/12/03 08:00:37;;;;;;;46.80;29.50;;;4.90;96.60;;;;;;4993833;28;20034;-63
2022/12/03 08:03:02;;;;;;;47.53;30.23;;;5.00;96.60;;;;;;4993316;28;20027;-63
2022/12/03 08:05:28;;;;;;;47.50;30.27;;;5.00;96.60;;;;;;4993830;28;20022;-62
2022/12/03 08:07:54;;;;;;;43.28;28.17;;;5.00;96.10;;;;;;4993704;28;20022;-61
2022/12/03 08:10:20;;;;;;;46.03;29.77;;;5.10;96.50;;;;;;4993415;28;20038;-65
2022/12/03 08:12:46;;;;;;;46.50;31.08;;;4.90;96.70;;;;;;4993579;28;20483;-62
2022/12/03 08:15:17;;;;;;;46.55;30.38;;;5.00;96.60;;;;;;4993603;28;20033;-61
2022/12/03 08:17:44;;;;;;;44.60;29.25;;;5.00;96.70;;;;;;4988070;28;20069;-61
2022/12/03 08:20:16;;;;;;;63.22;28.75;;;4.90;96.90;;;;;;4990051;28;21124;-60
2022/12/03 08:22:43;;;;;;;45.55;28.15;;;5.10;98.50;;;;;;4986779;28;20517;-62
2022/12/03 08:25:27;;;;;;;41.85;27.40;;;5.70;96.80;;;;;;4986982;28;20498;-62
2022/12/03 08:27:55;;;;;;;43.72;28.05;;;6.30;96.10;;;;;;4991620;28;20491;-60
2022/12/03 08:30:21;;;;;;;42.58;27.90;;;6.80;95.00;;;;;;4980769;28;20070;-61
2022/12/03 08:32:47;;;;;;;46.22;28.50;;;7.00;94.50;;;;;;4991613;28;20142;-60
2022/12/03 08:35:23;;;;;;;42.22;27.08;;;7.40;93.90;;;;;;4986009;28;20037;-61
2022/12/03 08:38:11;;;;;;;47.47;27.90;;;7.70;93.60;;;;;;4992062;28;20029;-62
2022/12/03 08:40:46;;;;;;;51.10;28.30;;;7.80;93.10;;;;;;4987141;28;20479;-63
2022/12/03 08:43:25;;;;;;;43.20;27.90;;;7.80;92.90;;;;;;4989205;28;20023;-61
2022/12/03 08:45:52;;;;;;;44.08;28.13;;;8.10;92.50;;;;;;4989294;28;20038;-61
2022/12/03 08:48:18;;;;;;;40.08;26.75;;;8.20;92.40;;;;;;4989944;28;20068;-58
2022/12/03 08:50:44;;;;;;;41.78;26.90;;;8.40;92.10;;;;;;4984176;28;20066;-60
2022/12/03 08:53:12;;;;;;;42.83;27.83;;;8.60;91.60;;;;;;4991616;28;20045;-60
2022/12/03 08:55:59;;;;;;;39.40;26.27;;;8.50;91.60;;;;;;4992367;28;20038;-66
2022/12/03 08:58:40;;;;;;;38.75;27.65;;;8.40;91.60;;;;;;4975364;28;20034;-67
2022/12/03 09:01:11;;;;;;;43.10;27.35;;;8.50;91.30;;;;;;4993523;28;20399;-58
2022/12/03 09:03:39;;;;;;;40.40;27.60;;;8.30;91.70;;;;;;4992260;28;20029;-70
2022/12/03 09:06:05;;;;;;;45.50;28.27;;;8.50;91.30;;;;;;4993932;28;20030;-66
2022/12/03 09:08:31;;;;;;;41.42;27.27;;;8.60;91.20;;;;;;4990668;28;20360;-65
2022/12/03 09:10:56;;;;;;;43.90;28.52;;;8.60;91.10;;;;;;4991133;28;20050;-62
2022/12/03 09:13:22;;;;;;;42.10;27.20;;;8.60;91.10;;;;;;4989413;28;20034;-63
2022/12/03 09:15:48;;;;;;;39.78;27.08;;;8.70;91.10;;;;;;4991398;28;20053;-66
2022/12/03 09:18:13;;;;;;;38.78;26.67;;;8.70;91.00;;;;;;4993778;28;20038;-66
2022/12/03 09:20:39;;;;;;;41.15;26.88;;;8.80;91.00;;;;;;4994616;28;20375;-62
2022/12/03 09:23:05;;;;;;;43.65;28.33;;;8.80;90.80;;;;;;4990830;28;20030;-61
2022/12/03 09:25:30;;;;;;;39.25;26.90;;;8.80;91.00;;;;;;4989964;28;20025;-66
2022/12/03 09:27:56;;;;;;;41.33;27.08;;;8.80;90.80;;;;;;4991754;28;20076;-66
2022/12/03 09:30:22;;;;;;;42.50;26.95;;;8.60;91.00;;;;;;4991016;28;20049;-61
2022/12/03 09:32:47;;;;;;;37.97;26.80;;;8.50;91.10;;;;;;4991895;28;20022;-63
2022/12/03 09:35:13;;;;;;;39.15;26.27;;;8.50;91.10;;;;;;4988403;28;20030;-63
2022/12/03 09:37:38;;;;;;;40.58;27.50;;;8.70;91.00;;;;;;4991718;28;20022;-62
2022/12/03 09:40:06;;;;;;;38.40;27.38;;;8.60;91.00;;;;;;4990219;28;20030;-67
2022/12/03 09:42:32;;;;;;;42.08;27.88;;;8.70;90.90;;;;;;4991737;28;20487;-62
2022/12/03 09:44:57;;;;;;;43.70;28.73;;;8.80;91.00;;;;;;4988876;28;20141;-63
2022/12/03 09:47:24;;;;;;;42.35;27.65;;;9.00;90.70;;;;;;4994135;28;20503;-63
2022/12/03 09:49:50;;;;;;;40.20;27.02;;;8.40;91.10;;;;;;4993765;28;20110;-68
2022/12/03 09:52:36;;;;;;;43.53;28.13;;;8.40;91.40;;;;;;4985215;28;20034;-61
2022/12/03 09:55:07;;;;;;;39.88;27.27;;;8.70;90.90;;;;;;4992362;28;20050;-62
2022/12/03 09:57:32;;;;;;;44.63;29.85;;;8.80;90.90;;;;;;4994145;28;20077;-64
2022/12/03 09:59:59;;;;;;;38.22;26.23;;;8.90;90.80;;;;;;4985998;28;20054;-61
2022/12/03 10:02:28;;;;;;;43.25;28.08;;;9.10;91.50;;;;;;4989096;28;20120;-64
2022/12/03 10:04:54;;;;;;;44.17;28.42;;;9.10;91.10;;;;;;4988269;28;20027;-63
2022/12/03 10:07:21;;;;;;;43.67;29.45;;;9.00;91.10;;;;;;4994733;28;20038;-66
2022/12/03 10:09:46;;;;;;;42.08;29.27;;;8.80;91.10;;;;;;4982659;28;20038;-62
2022/12/03 10:12:14;;;;;;;36.85;27.20;;;8.50;91.40;;;;;;4984665;28;20125;-66
2022/12/03 10:14:41;;;;;;;38.45;27.00;;;8.80;91.50;;;;;;4990474;28;20022;-66
2022/12/03 10:17:09;;;;;;;40.78;28.98;;;8.80;91.80;;;;;;4986461;28;20450;-66
2022/12/03 10:19:36;;;;;;;43.38;28.95;;;8.60;91.30;;;;;;4992444;28;20574;-64
2022/12/03 10:22:02;;;;;;;41.67;28.92;;;8.10;91.80;;;;;;4989497;28;20030;-67
2022/12/03 10:24:35;;;;;;;44.10;31.40;;;8.00;92.50;;;;;;4990748;28;20073;-65
2022/12/03 10:27:22;;;;;;;42.95;29.23;;;8.40;92.00;;;;;;4991445;28;20011;-64
2022/12/03 10:29:55;;;;;;;44.10;31.15;;;8.50;91.90;;;;;;4990796;28;20053;-67
2022/12/03 10:32:25;;;;;;;45.88;33.00;;;8.80;92.10;;;;;;4986502;28;20533;-65
2022/12/03 10:35:05;;;;;;;47.92;30.73;;;9.00;91.60;;;;;;4978467;28;20049;-65
2022/12/03 10:37:30;;;;;;;44.55;31.40;;;9.00;91.90;;;;;;4976816;28;20027;-62
2022/12/03 10:40:07;;;;;;;44.08;30.08;;;9.10;91.10;;;;;;4992364;28;20038;-67
2022/12/03 10:42:35;;;;;;;44.40;30.88;;;9.10;91.60;;;;;;4988524;28;20100;-67
2022/12/03 10:45:19;;;;;;;48.05;29.70;;;9.10;92.20;;;;;;4990531;28;20033;-63
2022/12/03 10:48:24;;;;;;;43.60;30.70;;;8.90;92.20;;;;;;4988308;28;20109;-64
2022/12/03 10:51:21;;;;;;;49.17;31.58;;;8.90;92.60;;;;;;4896235;29;20062;-63
2022/12/03 10:53:49;;;;;;;52.75;32.60;;;8.80;93.00;;;;;;4979323;28;20057;-63
2022/12/03 10:56:25;;;;;;;46.13;30.15;;;8.70;94.60;;;;;;4986582;28;20046;-59
2022/12/03 10:58:51;;;;;;;48.05;30.83;;;8.70;92.70;;;;;;4983904;28;20042;-59
2022/12/03 11:01:20;;;;;;;57.22;33.83;;;8.80;92.20;;;;;;4987401;28;20581;-65
2022/12/03 11:03:46;;;;;;;52.22;34.00;;;9.00;94.00;;;;;;4991931;28;20076;-63
2022/12/03 11:06:20;;;;;;;68.80;35.35;;;9.60;95.50;;;;;;4996345;28;20025;-64
2022/12/03 11:08:49;;;;;;;47.05;31.65;;;9.90;95.10;;;;;;4997579;28;20054;-53
2022/12/03 11:11:30;;;;;;;54.97;30.58;;;9.80;91.20;;;;;;4993299;28;20044;-63
2022/12/03 11:14:00;;;;;;;50.20;31.38;;;9.40;91.40;;;;;;4988391;28;20114;-60
2022/12/03 11:16:38;;;;;;;72.47;37.80;;;9.40;91.60;;;;;;4983121;28;20050;-59
2022/12/03 11:19:44;;;;;;;79.53;32.35;;;9.40;91.50;;;;;;4992398;28;20038;-60
2022/12/03 11:22:09;;;;;;;99.13;35.63;;;9.50;92.00;;;;;;4984221;28;20062;-56
2022/12/03 11:24:37;;;;;;;80.15;34.65;;;9.30;91.50;;;;;;4989623;28;20026;-62
2022/12/03 11:27:03;;;;;;;87.35;37.10;;;9.50;91.10;;;;;;4989798;28;20026;-65
2022/12/03 11:29:53;;;;;;;93.10;36.92;;;9.60;91.50;;;;;;4992526;28;20035;-65
2022/12/03 11:32:37;;;;;;;73.78;34.90;;;9.60;92.10;;;;;;4986619;28;20030;-65
2022/12/03 11:35:23;;;;;;;61.42;31.63;;;9.70;90.80;;;;;;4994333;28;20037;-62
2022/12/03 11:37:49;;;;;;;71.60;31.92;;;9.50;90.40;;;;;;4984875;28;20047;-64
2022/12/03 11:40:17;;;;;;;92.28;33.53;;;9.30;90.80;;;;;;4988926;28;20030;-65
2022/12/03 11:42:44;;;;;;;128.50;37.58;;;9.40;91.80;;;;;;4991242;28;20034;-64
2022/12/03 11:45:13;;;;;;;140.82;38.28;;;9.50;91.70;;;;;;4990530;28;20106;-60
2022/12/03 11:47:44;;;;;;;71.20;31.90;;;9.70;92.10;;;;;;4987632;28;20093;-65
2022/12/03 11:50:22;;;;;;;86.65;32.85;;;9.90;90.80;;;;;;4988158;28;20050;-64
2022/12/03 11:52:53;;;;;;;84.40;33.25;;;9.70;91.10;;;;;;4988010;28;20475;-59
2022/12/03 11:55:37;;;;;;;76.45;30.83;;;9.80;91.20;;;;;;4989772;28;20034;-58
2022/12/03 11:58:31;;;;;;;82.57;31.23;;;9.90;90.40;;;;;;4982828;28;20030;-62
2022/12/03 12:00:59;;;;;;;59.28;29.98;;;9.80;90.60;;;;;;4978366;28;20042;-66
2022/12/03 12:03:30;;;;;;;54.05;27.73;;;9.80;90.30;;;;;;4990115;28;20022;-56
2022/12/03 12:06:37;;;;;;;59.60;28.80;;;9.80;90.30;;;;;;4988291;28;20034;-52
2022/12/03 12:09:03;;;;;;;76.25;29.48;;;9.60;89.80;;;;;;4959000;28;20129;-58
2022/12/03 12:11:34;;;;;;;51.63;27.40;;;9.50;91.50;;;;;;4986665;28;20134;-63
2022/12/03 12:14:07;;;;;;;59.13;27.48;;;9.60;90.60;;;;;;4989044;28;20390;-54
2022/12/03 12:16:36;;;;;;;54.22;27.88;;;9.70;90.60;;;;;;4980685;28;20030;-54
2022/12/03 12:19:33;;;;;;;45.83;26.00;;;9.90;90.40;;;;;;4979544;28;20038;-62
2022/12/03 12:22:28;;;;;;;54.85;27.85;;;9.90;88.20;;;;;;4983128;28;20022;-62
2022/12/03 12:25:00;;;;;;;49.17;27.52;;;9.80;90.20;;;;;;4979400;28;20113;-56
2022/12/03 12:27:43;;;;;;;40.78;26.42;;;9.90;89.50;;;;;;4986160;28;20034;-61
2022/12/03 12:30:12;;;;;;;41.17;26.67;;;9.90;88.40;;;;;;4987878;28;20030;-61
2022/12/03 12:33:05;;;;;;;42.40;26.63;;;9.80;88.50;;;;;;4989371;28;20023;-56
2022/12/03 12:35:31;;;;;;;39.10;24.65;;;9.80;89.20;;;;;;4976373;28;20027;-59
2022/12/03 12:38:06;;;;;;;35.83;25.30;;;9.90;89.60;;;;;;4977979;28;20049;-64
2022/12/03 12:40:34;;;;;;;39.45;25.45;;;9.70;88.30;;;;;;4979404;28;20168;-56
2022/12/03 12:43:03;;;;;;;35.78;24.17;;;9.50;88.80;;;;;;4983124;28;20063;-55
2022/12/03 12:45:36;;;;;;;41.97;25.45;;;9.60;89.40;;;;;;4977231;28;20059;-55
2022/12/03 12:48:22;;;;;;;36.03;26.02;;;9.50;90.00;;;;;;4985652;28;20034;-59
2022/12/03 12:50:57;;;;;;;37.15;25.38;;;9.40;89.30;;;;;;4989329;28;20065;-54
2022/12/03 12:53:26;;;;;;;35.25;24.80;;;9.70;89.40;;;;;;4985027;28;20120;-57
2022/12/03 12:56:00;;;;;;;32.10;23.88;;;9.60;88.00;;;;;;4985729;28;20547;-60
2022/12/03 12:58:30;;;;;;;36.17;25.55;;;9.90;88.80;;;;;;4980876;28;20391;-56
2022/12/03 13:00:59;;;;;;;32.83;25.02;;;10.00;87.00;;;;;;4986398;28;20073;-53
2022/12/03 13:03:28;;;;;;;36.80;24.55;;;9.90;86.70;;;;;;4987716;28;20030;-61
2022/12/03 13:05:56;;;;;;;30.40;23.30;;;9.90;87.70;;;;;;4988774;28;20058;-65